Pontefract, United Kingdom
Current Conditions -  °F | °C
As of 8:50 PM on Tuesday 27 Jan 2015 (Local Time) from EGNM Reporting Station
Broken Clouds Broken Clouds  
Wind Chill: 35°   Ceiling: 1500
Heat Index: 41°   Visibility: 6mi
Dew Point: 37°   Wind: 10mph
Humidity: 87%   Direction: 260°W
Pressure: 30.03"   Gusts: NA
Location:  53.69°N, 1.31°W
Report Text: EGNM 272050Z 26009KT 220V290 9999 SCT010 BKN015 05/03 Q1017
Loading
Personal Weather Stations






























Interactive Weather Map New forecast layout! Learn more

10-Day Weather Forecast

Advertisements
Track Severe Weather on mobile